Terminal Aerodrome Forecast
Issued by NWS Wilmington, NC

Home | Current Version | Previous Version | Text Only | Print | Product List | Glossary On
Versions: 1 2 3 4 5 6 7 8 9 10 11 12 13 14 15 16 17 18 19 20 21 22 23 24 25
793
FTUS42 KILM 251054 AAA
TAFMYR
TAF AMD
KMYR 251054Z 2511/2606 00000KT 1/2SM FG VV002
      TEMPO 2511/2513 4SM BR SCT009
     FM251300 09009KT P6SM VCSH SCT025 BKN050
     FM260100 07008KT P6SM BKN015=

USA.gov is the U.S. government's official web portal to all federal, state and local government web resources and services.